createdAt,value
2023-01-11T00:01:01.853Z,92.03
2023-01-11T00:04:04.754Z,91.68
2023-01-11T00:07:07.239Z,91.12
2023-01-11T00:10:10.657Z,90.30
2023-01-11T00:13:14.276Z,90.56
2023-01-11T00:16:17.350Z,90.44
2023-01-11T00:19:19.912Z,90.96
2023-01-11T00:22:22.669Z,91.43
2023-01-11T00:25:25.321Z,92.17
2023-01-11T00:28:28.184Z,92.90
2023-01-11T00:31:31.185Z,93.77
2023-01-11T00:34:33.902Z,94.06
2023-01-11T00:37:36.468Z,94.88
2023-01-11T00:40:39.263Z,95.70
2023-01-11T00:44:00.258Z,96.01
2023-01-11T00:47:21.630Z,96.09
2023-01-11T00:50:25.394Z,96.34
2023-01-11T00:53:28.120Z,96.47
2023-01-11T00:56:30.596Z,94.65
2023-01-11T00:59:34.570Z,94.23
2023-01-11T01:02:37.162Z,94.71
2023-01-11T01:05:40.124Z,95.31
2023-01-11T01:08:42.576Z,96.61
2023-01-11T01:11:45.380Z,96.02
2023-01-11T01:14:47.909Z,95.46
2023-01-11T01:17:54.349Z,95.69
2023-01-11T01:20:56.944Z,95.38
2023-01-11T01:23:59.727Z,95.36
2023-01-11T01:27:02.247Z,95.01
2023-01-11T01:30:06.015Z,94.29
2023-01-11T01:33:08.848Z,93.39
2023-01-11T01:36:11.625Z,93.16
2023-01-11T01:39:14.460Z,90.89
2023-01-11T01:42:19.792Z,89.66
2023-01-11T01:45:26.801Z,90.43
2023-01-11T01:48:29.612Z,91.10
2023-01-11T01:51:35.232Z,91.74
2023-01-11T01:54:41.785Z,91.07
2023-01-11T01:57:45.058Z,90.73
2023-01-11T02:00:47.910Z,91.00
2023-01-11T02:03:51.629Z,90.85
2023-01-11T02:07:31.233Z,90.20
2023-01-11T02:10:34.020Z,90.42
2023-01-11T02:13:46.034Z,90.37
2023-01-11T02:16:48.831Z,90.02
2023-01-11T02:19:58.435Z,90.49
2023-01-11T02:23:30.788Z,89.74
2023-01-11T02:27:20.059Z,89.08
2023-01-11T02:30:44.673Z,88.83
2023-01-11T02:34:16.604Z,88.95
2023-01-11T02:37:41.265Z,90.25
2023-01-11T02:41:12.628Z,91.17
2023-01-11T02:44:36.239Z,92.33
2023-01-11T02:48:02.309Z,93.21
2023-01-11T02:51:12.886Z,93.63
2023-01-11T02:54:18.644Z,93.53
2023-01-11T02:57:22.881Z,93.79
2023-01-11T03:00:25.882Z,94.13
2023-01-11T03:03:28.532Z,95.66
2023-01-11T03:06:35.361Z,96.24
2023-01-11T03:10:08.340Z,97.13
2023-01-11T03:13:13.995Z,97.36
2023-01-11T03:16:25.344Z,97.77
2023-01-11T03:19:37.451Z,98.04
2023-01-11T03:23:02.628Z,98.38
2023-01-11T03:26:20.492Z,99.31
2023-01-11T03:29:30.260Z,99.55
2023-01-11T03:32:42.347Z,100.00
2023-01-11T03:35:44.747Z,100.00
2023-01-11T03:39:05.500Z,100.00
2023-01-11T03:42:09.469Z,100.00
2023-01-11T03:45:12.374Z,100.00
2023-01-11T03:48:18.772Z,100.00
2023-01-11T03:51:27.581Z,100.00
2023-01-11T03:54:31.025Z,99.62
2023-01-11T03:57:36.993Z,99.36
2023-01-11T04:00:40.500Z,99.61
2023-01-11T04:03:43.348Z,100.00
2023-01-11T04:06:45.908Z,100.00
2023-01-11T04:09:48.756Z,100.00
2023-01-11T04:12:51.355Z,100.00
2023-01-11T04:15:54.475Z,100.00
2023-01-11T04:18:57.085Z,100.00
2023-01-11T04:21:59.880Z,100.00
2023-01-11T04:25:02.410Z,100.00
2023-01-11T04:28:05.619Z,100.00
2023-01-11T04:31:08.208Z,100.00
2023-01-11T04:34:12.289Z,100.00
2023-01-11T04:37:14.784Z,100.00
2023-01-11T04:40:18.280Z,100.00
2023-01-11T04:43:20.815Z,100.00
2023-01-11T04:46:24.410Z,100.00
2023-01-11T04:49:26.959Z,100.00
2023-01-11T04:52:29.722Z,100.00
2023-01-11T04:55:32.253Z,100.00
2023-01-11T04:58:38.107Z,100.00
2023-01-11T05:01:40.873Z,100.00
2023-01-11T05:04:44.031Z,100.00
2023-01-11T05:07:48.475Z,100.00
2023-01-11T05:10:56.053Z,100.00
2023-01-11T05:14:00.075Z,100.00
2023-01-11T05:17:02.940Z,100.00
2023-01-11T05:20:05.824Z,100.00
2023-01-11T05:23:08.915Z,100.00
2023-01-11T05:26:14.857Z,100.00
2023-01-11T05:29:19.305Z,100.00
2023-01-11T05:32:21.995Z,100.00
2023-01-11T05:35:24.931Z,100.00
2023-01-11T05:38:28.598Z,100.00
2023-01-11T05:41:31.430Z,100.00
2023-01-11T05:44:52.573Z,100.00
2023-01-11T05:47:55.510Z,100.00
2023-01-11T05:51:01.347Z,100.00
2023-01-11T05:54:05.792Z,100.00
2023-01-11T05:57:11.586Z,100.00
2023-01-11T06:00:15.114Z,100.00
2023-01-11T06:03:18.774Z,100.00
2023-01-11T06:06:22.215Z,100.00
2023-01-11T06:09:25.208Z,100.00
2023-01-11T06:12:27.984Z,100.00
2023-01-11T06:15:31.017Z,100.00
2023-01-11T06:18:39.248Z,100.00
2023-01-11T06:21:42.286Z,100.00
2023-01-11T06:24:45.234Z,100.00
2023-01-11T06:27:48.337Z,100.00
2023-01-11T06:30:55.651Z,100.00
2023-01-11T06:33:58.804Z,100.00
2023-01-11T06:37:01.717Z,100.00
2023-01-11T06:40:05.292Z,100.00
2023-01-11T06:43:09.205Z,100.00
2023-01-11T06:46:14.508Z,100.00
2023-01-11T06:49:17.523Z,100.00
2023-01-11T06:52:20.703Z,100.00
2023-01-11T06:55:25.617Z,100.00
2023-01-11T06:58:29.021Z,100.00
2023-01-11T07:01:32.533Z,100.00
2023-01-11T07:04:37.792Z,100.00
2023-01-11T07:07:43.473Z,100.00
2023-01-11T07:10:52.577Z,100.00
2023-01-11T07:13:58.068Z,100.00
2023-01-11T07:17:02.059Z,100.00
2023-01-11T07:20:06.363Z,100.00
2023-01-11T07:23:11.349Z,100.00
2023-01-11T07:26:14.936Z,100.00
2023-01-11T07:29:18.964Z,100.00
2023-01-11T07:32:21.714Z,100.00
2023-01-11T07:35:28.056Z,100.00
2023-01-11T07:38:32.447Z,100.00
2023-01-11T07:41:54.948Z,100.00
2023-01-11T07:44:58.706Z,100.00
2023-01-11T07:48:03.349Z,100.00
2023-01-11T07:51:06.245Z,100.00
2023-01-11T07:54:09.370Z,100.00
2023-01-11T07:57:12.132Z,100.00
2023-01-11T08:00:16.344Z,100.00
2023-01-11T08:03:20.039Z,100.00
2023-01-11T08:06:22.865Z,100.00
2023-01-11T08:09:25.962Z,100.00
2023-01-11T08:12:47.246Z,100.00
2023-01-11T08:15:51.363Z,100.00
2023-01-11T08:18:54.059Z,100.00
2023-01-11T08:21:57.024Z,100.00
2023-01-11T08:25:06.817Z,100.00
2023-01-11T08:28:11.418Z,100.00
2023-01-11T08:31:14.288Z,100.00
2023-01-11T08:34:17.237Z,100.00
2023-01-11T08:37:20.058Z,100.00
2023-01-11T08:40:24.387Z,99.22
2023-01-11T08:43:27.336Z,98.47
2023-01-11T08:46:30.498Z,98.42
2023-01-11T08:49:33.175Z,98.38
2023-01-11T08:52:36.055Z,98.15
2023-01-11T08:55:41.746Z,98.42
2023-01-11T08:58:44.776Z,98.73
2023-01-11T09:01:47.547Z,98.14
2023-01-11T09:04:50.606Z,98.75
2023-01-11T09:07:56.669Z,98.54
2023-01-11T09:11:00.254Z,98.79
2023-01-11T09:14:04.051Z,99.01
2023-01-11T09:17:07.455Z,99.12
2023-01-11T09:20:12.135Z,98.18
2023-01-11T09:23:14.948Z,96.99
2023-01-11T09:26:17.763Z,95.62
2023-01-11T09:29:20.932Z,93.99
2023-01-11T09:32:23.921Z,93.41
2023-01-11T09:35:27.291Z,93.64
2023-01-11T09:38:30.961Z,92.15
2023-01-11T09:41:46.716Z,91.64
2023-01-11T09:44:52.336Z,92.09
2023-01-11T09:48:03.708Z,92.81
2023-01-11T09:51:06.519Z,91.72
2023-01-11T09:54:17.889Z,90.33
2023-01-11T09:57:27.903Z,90.50
2023-01-11T10:00:52.260Z,90.06
2023-01-11T10:04:16.506Z,90.16
2023-01-11T10:18:26.524Z,87.23
2023-01-11T10:22:39.788Z,87.06
2023-01-11T10:25:55.379Z,88.56
2023-01-11T10:29:16.571Z,88.94
2023-01-11T10:32:47.879Z,89.36
2023-01-11T10:35:59.755Z,90.12
2023-01-11T10:39:30.208Z,89.40
2023-01-11T10:42:44.295Z,88.18
2023-01-11T10:45:50.907Z,85.32
2023-01-11T10:49:22.632Z,86.23
2023-01-11T10:52:41.623Z,86.94
2023-01-11T10:56:11.339Z,87.44
2023-01-11T10:59:52.599Z,87.52
2023-01-11T11:03:27.575Z,87.20
2023-01-11T11:06:45.759Z,81.49
2023-01-11T11:09:57.409Z,82.54
2023-01-11T11:13:16.382Z,83.16
2023-01-11T11:16:22.182Z,75.11
2023-01-11T11:19:30.479Z,75.54
2023-01-11T11:22:33.857Z,76.52
2023-01-11T11:25:38.698Z,76.15
2023-01-11T11:29:00.061Z,75.15
2023-01-11T11:32:03.421Z,76.34
2023-01-11T11:35:08.129Z,76.69
2023-01-11T11:38:22.868Z,76.18
2023-01-11T11:41:25.782Z,75.83
2023-01-11T11:44:28.667Z,73.87
2023-01-11T11:47:31.278Z,73.58
2023-01-11T11:50:49.156Z,74.57
2023-01-11T11:53:55.011Z,75.35
2023-01-11T11:56:59.415Z,75.30
2023-01-11T12:00:09.296Z,75.46
2023-01-11T12:03:42.238Z,76.36
2023-01-11T12:06:49.261Z,75.28
2023-01-11T12:10:09.011Z,76.22
2023-01-11T12:13:35.523Z,75.72
2023-01-11T12:16:40.953Z,76.30
2023-01-11T12:19:47.977Z,74.44
2023-01-11T12:23:12.862Z,74.10
2023-01-11T12:26:19.916Z,75.05
2023-01-11T12:29:29.000Z,74.56
2023-01-11T12:32:59.083Z,74.81
2023-01-11T12:36:07.948Z,73.26
2023-01-11T12:39:36.517Z,73.42
2023-01-11T12:42:51.548Z,75.68
2023-01-11T12:46:07.327Z,76.48
2023-01-11T12:49:29.164Z,75.00
2023-01-11T12:52:56.925Z,76.55
2023-01-11T12:56:26.960Z,75.92
2023-01-11T13:00:07.468Z,74.84
2023-01-11T13:03:42.918Z,73.55
2023-01-11T13:06:45.457Z,73.17
2023-01-11T13:10:15.935Z,75.20
2023-01-11T13:13:51.291Z,77.64
2023-01-11T13:16:58.509Z,79.47
2023-01-11T13:20:24.577Z,79.44
2023-01-11T13:23:49.831Z,80.04
2023-01-11T13:26:55.276Z,81.00
2023-01-11T13:30:00.985Z,81.11
2023-01-11T13:33:06.803Z,80.58
2023-01-11T13:36:22.800Z,79.45
2023-01-11T13:39:35.393Z,78.84
2023-01-11T13:42:46.341Z,78.76
2023-01-11T13:45:49.079Z,78.31
2023-01-11T13:49:24.296Z,77.72
2023-01-11T13:52:50.600Z,77.64
2023-01-11T13:56:15.751Z,77.95
2023-01-11T13:59:41.217Z,78.56
2023-01-11T14:02:48.277Z,78.94
2023-01-11T14:05:58.967Z,79.32
2023-01-11T14:09:20.528Z,78.94
2023-01-11T14:12:54.724Z,79.17
2023-01-11T14:15:59.698Z,79.98
2023-01-11T14:19:28.653Z,80.36
2023-01-11T14:22:56.325Z,80.12
2023-01-11T14:26:17.691Z,80.36
2023-01-11T14:29:45.303Z,81.04
2023-01-11T14:33:15.336Z,82.08
2023-01-11T14:36:18.008Z,82.35
2023-01-11T14:39:43.902Z,83.03
2023-01-11T14:43:08.197Z,83.13
2023-01-11T14:46:39.376Z,83.00
2023-01-11T14:50:16.214Z,83.51
2023-01-11T14:53:24.067Z,84.29
2023-01-11T14:56:37.584Z,84.98
2023-01-11T14:59:40.868Z,85.59
2023-01-11T15:02:43.554Z,86.04
2023-01-11T15:05:47.463Z,86.72
2023-01-11T15:08:55.141Z,87.26
2023-01-11T15:12:11.981Z,87.89
2023-01-11T15:15:17.762Z,88.29
2023-01-11T15:18:24.029Z,89.09
2023-01-11T15:21:27.423Z,89.14
2023-01-11T15:24:43.252Z,89.39
2023-01-11T15:27:46.295Z,89.78
2023-01-11T15:30:52.642Z,90.10
2023-01-11T15:33:55.654Z,90.44
2023-01-11T15:37:05.521Z,90.79
2023-01-11T15:40:20.731Z,91.25
2023-01-11T15:44:16.931Z,92.34
2023-01-11T15:47:43.756Z,92.93
2023-01-11T15:51:07.723Z,93.67
2023-01-11T15:54:33.338Z,94.15
2023-01-11T15:58:06.981Z,95.02
2023-01-11T16:01:23.461Z,95.55
2023-01-11T16:04:33.940Z,97.41
2023-01-11T16:07:42.462Z,98.48
2023-01-11T16:10:51.828Z,98.77
2023-01-11T16:14:11.147Z,98.75
2023-01-11T16:17:15.539Z,99.36
2023-01-11T16:20:20.904Z,100.00
2023-01-11T16:23:24.168Z,100.00
2023-01-11T16:26:26.757Z,99.88
2023-01-11T16:29:37.516Z,99.63
2023-01-11T16:32:40.403Z,99.00
2023-01-11T16:35:43.295Z,98.73
2023-01-11T16:38:50.747Z,98.33
2023-01-11T16:42:03.929Z,97.95
2023-01-11T16:45:08.779Z,97.23
2023-01-11T16:48:17.068Z,97.10
2023-01-11T16:51:21.565Z,97.00
2023-01-11T16:54:27.686Z,96.68
2023-01-11T16:57:39.410Z,96.25
2023-01-11T17:00:42.309Z,96.07
2023-01-11T17:03:50.905Z,95.44
2023-01-11T17:06:57.096Z,94.34
2023-01-11T17:10:23.360Z,93.42
2023-01-11T17:13:54.565Z,91.83
2023-01-11T17:17:02.964Z,92.15
2023-01-11T17:20:26.755Z,92.31
2023-01-11T17:23:29.294Z,91.90
2023-01-11T17:26:42.075Z,92.66
2023-01-11T17:29:45.146Z,93.91
2023-01-11T17:32:50.348Z,94.12
2023-01-11T17:35:54.096Z,94.15
2023-01-11T17:38:58.043Z,94.01
2023-01-11T17:42:25.152Z,93.40
2023-01-11T17:45:28.038Z,93.10
2023-01-11T17:48:31.702Z,92.21
2023-01-11T17:51:35.229Z,92.24
2023-01-11T17:54:37.929Z,92.11
2023-01-11T17:57:40.864Z,91.85
2023-01-11T18:00:45.718Z,91.44
2023-01-11T18:03:54.121Z,89.77
2023-01-11T18:07:16.040Z,89.40
2023-01-11T18:10:27.859Z,89.26
2023-01-11T18:13:34.862Z,87.82
2023-01-11T18:16:59.084Z,87.62
2023-01-11T18:20:23.206Z,86.79
2023-01-11T18:23:27.006Z,87.60
2023-01-11T18:26:32.103Z,88.16
2023-01-11T18:29:37.593Z,88.48
2023-01-11T18:32:43.531Z,88.82
2023-01-11T18:35:51.847Z,88.47
2023-01-11T18:38:54.605Z,88.74
2023-01-11T18:42:09.368Z,88.94
2023-01-11T18:45:12.887Z,89.11
2023-01-11T18:48:15.855Z,89.10
2023-01-11T18:51:23.038Z,88.97
2023-01-11T18:54:25.937Z,88.69
2023-01-11T18:57:29.128Z,88.31
2023-01-11T19:00:32.114Z,88.32
2023-01-11T19:03:34.796Z,88.21
2023-01-11T19:06:37.640Z,88.17
2023-01-11T19:09:41.601Z,88.12
2023-01-11T19:12:45.096Z,88.64
2023-01-11T19:15:47.708Z,88.76
2023-01-11T19:18:54.264Z,88.74
2023-01-11T19:21:57.100Z,87.74
2023-01-11T19:25:00.215Z,87.45
2023-01-11T19:28:03.682Z,87.24
2023-01-11T19:31:08.209Z,87.62
2023-01-11T19:34:10.953Z,87.76
2023-01-11T19:37:13.789Z,87.79
2023-01-11T19:40:16.824Z,87.07
2023-01-11T19:43:19.663Z,87.10
2023-01-11T19:46:31.067Z,86.64
2023-01-11T19:49:34.670Z,86.53
2023-01-11T19:52:37.186Z,85.04
2023-01-11T19:55:40.052Z,85.02
2023-01-11T19:58:42.863Z,85.11
2023-01-11T20:01:46.719Z,84.69
2023-01-11T20:04:49.802Z,84.28
2023-01-11T20:07:53.974Z,83.94
2023-01-11T20:10:57.076Z,84.08
2023-01-11T20:13:59.957Z,84.36
2023-01-11T20:17:03.094Z,84.69
2023-01-11T20:20:07.078Z,84.80
2023-01-11T20:23:11.438Z,85.17
2023-01-11T20:26:17.079Z,85.20
2023-01-11T20:29:20.028Z,85.02
2023-01-11T20:32:40.271Z,84.62
2023-01-11T20:35:44.777Z,84.85
2023-01-11T20:38:47.309Z,85.25
2023-01-11T20:41:51.101Z,85.64
2023-01-11T20:44:53.910Z,85.89
2023-01-11T20:47:56.910Z,86.03
2023-01-11T20:51:00.975Z,86.04
2023-01-11T20:54:04.924Z,86.34
2023-01-11T20:57:12.384Z,86.45
2023-01-11T21:00:15.840Z,86.58
2023-01-11T21:03:20.117Z,86.54
2023-01-11T21:06:22.969Z,86.75
2023-01-11T21:09:25.602Z,87.22
2023-01-11T21:12:28.540Z,87.67
2023-01-11T21:15:31.032Z,87.90
2023-01-11T21:18:33.895Z,89.29
2023-01-11T21:21:36.473Z,90.07
2023-01-11T21:24:41.159Z,89.72
2023-01-11T21:27:43.708Z,90.98
2023-01-11T21:30:46.629Z,92.49
2023-01-11T21:33:49.888Z,93.71
2023-01-11T21:36:53.655Z,95.09
2023-01-11T21:39:56.263Z,97.26
2023-01-11T21:42:59.317Z,100.00
2023-01-11T21:46:02.880Z,100.00
2023-01-11T21:49:06.329Z,100.00
2023-01-11T21:52:09.045Z,100.00
2023-01-11T21:55:11.846Z,100.00
2023-01-11T21:58:14.409Z,100.00
2023-01-11T22:01:19.558Z,100.00
2023-01-11T22:04:22.798Z,100.00
2023-01-11T22:07:30.846Z,100.00
2023-01-11T22:10:34.204Z,100.00
2023-01-11T22:13:36.980Z,100.00
2023-01-11T22:16:40.754Z,100.00
2023-01-11T22:19:43.360Z,100.00
2023-01-11T22:22:46.146Z,100.00
2023-01-11T22:25:48.812Z,100.00
2023-01-11T22:29:12.143Z,100.00
2023-01-11T22:32:14.786Z,100.00
2023-01-11T22:35:17.608Z,100.00
2023-01-11T22:38:20.171Z,100.00
2023-01-11T22:41:24.631Z,100.00
2023-01-11T22:44:27.384Z,100.00
2023-01-11T22:47:30.154Z,100.00
2023-01-11T22:50:32.721Z,100.00
2023-01-11T22:53:42.545Z,100.00
2023-01-11T22:56:45.233Z,100.00
2023-01-11T22:59:48.051Z,100.00
2023-01-11T23:02:50.625Z,100.00
2023-01-11T23:05:53.547Z,100.00
2023-01-11T23:08:57.026Z,100.00
2023-01-11T23:12:18.577Z,100.00
2023-01-11T23:15:21.216Z,100.00
2023-01-11T23:18:24.145Z,100.00
2023-01-11T23:21:27.135Z,100.00
2023-01-11T23:24:30.339Z,100.00
2023-01-11T23:27:34.437Z,100.00
2023-01-11T23:30:37.306Z,100.00
2023-01-11T23:33:39.896Z,100.00
2023-01-11T23:36:43.161Z,100.00
2023-01-11T23:39:46.015Z,100.00
2023-01-11T23:42:49.123Z,100.00
2023-01-11T23:46:14.122Z,100.00
2023-01-11T23:49:17.997Z,100.00
2023-01-11T23:52:22.948Z,100.00
2023-01-11T23:55:26.435Z,100.00
2023-01-11T23:58:31.647Z,100.00
